Time;durP1;ratioP1;P1;durP2;ratioP2;P2;SDS_P1;SDS_P2;PMS_P1;PMS_P2;Temp;Humidity;BMP_temperature;BMP_pressure;BME280_temperature;BME280_humidity;BME280_pressure;Samples;Min_cycle;Max_cycle;Signal;HPM_P1;HPM_P2
2022/02/02 00:02:26;;;;;;;;;;;;;;;4.54;59.43;98870.28;4499951;31;19980;-85
2022/02/02 00:04:58;;;;;;;;;;;;;;;4.49;59.44;98864.38;4501042;31;20054;-86
2022/02/02 00:09:57;;;;;;;;;;;;;;;4.31;59.41;98863.06;4499739;31;20257;-87
2022/02/02 00:17:35;;;;;;;;;;;;;;;4.38;59.42;98847.47;4501957;31;20035;-90
2022/02/02 00:20:13;;;;;;;;;;;;;;;4.29;59.42;98854.50;4501118;31;19980;-87
2022/02/02 00:22:41;;;;;;;;;;;;;;;4.32;59.42;98851.03;4499702;31;20035;-87
2022/02/02 00:25:29;;;;;;;;;;;;;;;4.20;59.42;98841.81;4486744;31;20012;-84
2022/02/02 00:27:57;;;;;;;;;;;;;;;4.26;59.41;98836.53;4501047;31;19994;-88
2022/02/02 00:30:26;;;;;;;;;;;;;;;4.15;59.41;98830.75;4499879;31;20272;-85
2022/02/02 00:35:21;;;;;;;;;;;;;;;4.14;59.41;98830.78;4499880;31;20020;-88
2022/02/02 00:37:46;;;;;;;;;;;;;;;4.13;59.41;98818.78;4487208;31;19980;-88
2022/02/02 00:40:12;;;;;;;;;;;;;;;4.17;59.41;98812.69;4486952;31;20014;-88
2022/02/02 00:42:37;;;;;;;;;;;;;;;4.01;59.40;98815.56;4499643;31;20015;-87
2022/02/02 00:45:02;;;;;;;;;;;;;;;3.95;59.40;98802.84;4500902;31;20004;-88
2022/02/02 00:47:35;;;;;;;;;;;;;;;3.90;59.39;98793.53;4486147;31;20045;-86
2022/02/02 00:50:00;;;;;;;;;;;;;;;3.89;59.39;98797.81;4500651;31;19980;-87
2022/02/02 00:52:26;;;;;;;;;;;;;;;3.89;59.39;98796.97;4499478;31;20008;-86
2022/02/02 00:54:51;;;;;;;;;;;;;;;3.86;59.39;98794.47;4500789;31;19992;-88
2022/02/02 00:57:16;;;;;;;;;;;;;;;3.89;59.39;98789.25;4498408;31;19980;-86
2022/02/02 00:59:42;;;;;;;;;;;;;;;3.91;59.40;98774.63;4500071;31;22558;-85
2022/02/02 01:02:08;;;;;;;;;;;;;;;3.86;59.40;98772.16;4500621;31;20315;-86
2022/02/02 01:04:33;;;;;;;;;;;;;;;3.90;59.40;98763.47;4500730;31;20037;-87
2022/02/02 01:09:46;;;;;;;;;;;;;;;3.75;59.38;98762.94;4499515;31;20055;-87
2022/02/02 01:19:43;;;;;;;;;;;;;;;3.80;59.39;98745.69;4484674;31;20010;-84
2022/02/02 01:30:05;;;;;;;;;;;;;;;4.00;59.40;98739.22;4483349;32;20016;-84
2022/02/02 01:32:31;;;;;;;;;;;;;;;3.92;59.40;98733.41;4497133;31;20252;-85
2022/02/02 01:34:56;;;;;;;;;;;;;;;3.95;59.40;98722.19;4485703;31;19980;-83
2022/02/02 01:37:21;;;;;;;;;;;;;;;3.90;59.40;98730.00;4499902;31;20375;-87
2022/02/02 01:39:52;;;;;;;;;;;;;;;3.94;59.40;98731.62;4472547;31;19992;-87
2022/02/02 01:42:19;;;;;;;;;;;;;;;3.86;59.40;98723.25;4500316;31;19982;-86
2022/02/02 01:45:03;;;;;;;;;;;;;;;4.06;59.41;98724.53;4500058;31;19995;-85
2022/02/02 01:47:35;;;;;;;;;;;;;;;3.86;59.40;98722.38;4485577;31;20052;-86
2022/02/02 01:50:14;;;;;;;;;;;;;;;4.03;59.40;98714.31;4499947;31;19980;-86
2022/02/02 01:53:02;;;;;;;;;;;;;;;3.99;59.40;98719.50;4500167;31;20021;-87
2022/02/02 01:55:38;;;;;;;;;;;;;;;4.13;59.41;98700.34;4474909;31;19988;-85
2022/02/02 01:58:25;;;;;;;;;;;;;;;4.04;59.40;98713.44;4500008;31;20386;-88
2022/02/02 02:00:50;;;;;;;;;;;;;;;4.15;59.41;98707.13;4488281;31;19977;-87
2022/02/02 02:03:15;;;;;;;;;;;;;;;4.20;59.41;98710.44;4484964;31;21763;-86
2022/02/02 02:05:41;;;;;;;;;;;;;;;4.05;59.40;98707.41;4499597;31;20420;-88
2022/02/02 02:08:07;;;;;;;;;;;;;;;4.27;59.42;98706.03;4500935;31;19980;-87
2022/02/02 02:10:32;;;;;;;;;;;;;;;4.43;59.43;98701.34;4488247;31;20049;-88
2022/02/02 02:13:04;;;;;;;;;;;;;;;4.24;59.41;98706.91;4488135;31;19983;-90
2022/02/02 02:15:31;;;;;;;;;;;;;;;4.21;59.41;98698.41;4475794;31;20011;-88
2022/02/02 02:17:58;;;;;;;;;;;;;;;4.22;59.42;98695.81;4481512;31;19998;-89
2022/02/02 02:20:23;;;;;;;;;;;;;;;4.24;59.42;98696.59;4503045;31;19984;-86
2022/02/02 02:22:48;;;;;;;;;;;;;;;4.29;59.42;98689.66;4503107;31;19990;-86
2022/02/02 02:25:20;;;;;;;;;;;;;;;4.18;59.41;98694.19;4503110;31;20015;-87
2022/02/02 02:27:46;;;;;;;;;;;;;;;4.16;59.40;98688.22;4503331;31;20002;-84
2022/02/02 02:30:21;;;;;;;;;;;;;;;4.28;59.42;98679.38;4502886;31;19999;-85
2022/02/02 02:33:33;;;;;;;;;;;;;;;4.32;59.41;98681.84;4517503;31;19983;-84
2022/02/02 02:36:18;;;;;;;;;;;;;;;4.42;59.42;98679.03;4503920;31;20395;-86
2022/02/02 02:38:55;;;;;;;;;;;;;;;4.50;59.44;98672.81;4505984;31;19984;-84
2022/02/02 02:57:54;;;;;;;;;;;;;;;4.42;59.42;98655.84;4517191;31;19993;-84
2022/02/02 03:30:12;;;;;;;;;;;;;;;4.50;59.43;98629.03;4517291;31;19999;-83
2022/02/02 04:06:44;;;;;;;;;;;;;;;4.03;59.40;98629.34;4503777;31;19988;-86
2022/02/02 04:09:09;;;;;;;;;;;;;;;4.08;59.41;98620.63;4503334;31;20060;-85
2022/02/02 04:11:44;;;;;;;;;;;;;;;4.14;59.41;98619.63;4489196;31;20314;-84
2022/02/02 05:05:37;;;;;;;;;;;;;;;4.12;59.40;98622.22;4516493;31;19998;-84
2022/02/02 05:18:58;;;;;;;;;;;;;;;4.24;59.41;98603.88;4516361;31;20043;-84
2022/02/02 05:51:00;;;;;;;;;;;;;;;4.51;59.43;98581.75;4503592;31;20040;-84
2022/02/02 05:53:23;;;;;;;;;;;;;;;4.51;59.43;98581.75;4515732;31;19976;-85
2022/02/02 05:55:48;;;;;;;;;;;;;;;4.55;59.43;98580.78;4516311;31;20234;-85
2022/02/02 05:58:14;;;;;;;;;;;;;;;4.67;59.44;98583.91;4501541;31;19984;-84
2022/02/02 06:00:39;;;;;;;;;;;;;;;4.78;59.44;98581.91;4501515;31;20270;-84
2022/02/02 06:03:11;;;;;;;;;;;;;;;4.79;59.45;98574.13;4516071;31;20377;-84
2022/02/02 06:05:37;;;;;;;;;;;;;;;4.89;59.45;98566.97;4501330;31;20327;-85
2022/02/02 06:08:02;;;;;;;;;;;;;;;4.87;59.46;98579.06;4516114;31;19976;-84
2022/02/02 06:10:27;;;;;;;;;;;;;;;4.96;59.45;98578.78;4501412;31;20004;-84
2022/02/02 06:12:57;;;;;;;;;;;;;;;4.98;59.46;98574.47;4487495;31;25847;-85
2022/02/02 06:15:22;;;;;;;;;;;;;;;4.86;59.45;98570.47;4501780;31;19976;-85
2022/02/02 06:17:52;;;;;;;;;;;;;;;4.85;59.45;98583.41;4501122;31;20266;-85
2022/02/02 06:20:17;;;;;;;;;;;;;;;4.72;59.45;98579.47;4488030;31;20048;-85
2022/02/02 06:22:45;;;;;;;;;;;;;;;4.78;59.44;98594.78;4487375;31;19991;-86
2022/02/02 06:25:10;;;;;;;;;;;;;;;4.66;59.44;98590.78;4500977;31;19979;-85
2022/02/02 06:27:41;;;;;;;;;;;;;;;4.70;59.44;98589.81;4515395;31;19968;-85
2022/02/02 06:30:07;;;;;;;;;;;;;;;4.72;59.45;98610.38;4500803;31;19996;-84
2022/02/02 06:32:52;;;;;;;;;;;;;;;4.66;59.44;98611.41;4515314;31;20053;-85
2022/02/02 06:35:17;;;;;;;;;;;;;;;4.65;59.44;98616.59;4515440;31;20055;-85
2022/02/02 06:37:43;;;;;;;;;;;;;;;4.80;59.45;98603.31;4515142;31;20705;-85
2022/02/02 06:40:11;;;;;;;;;;;;;;;4.77;59.44;98598.25;4515212;31;19987;-85
2022/02/02 06:42:37;;;;;;;;;;;;;;;4.81;59.45;98613.59;4515326;31;19976;-85
2022/02/02 06:45:02;;;;;;;;;;;;;;;4.97;59.45;98618.31;4487344;31;20032;-86
2022/02/02 06:47:27;;;;;;;;;;;;;;;4.92;59.45;98631.34;4515062;31;20012;-86
2022/02/02 06:50:03;;;;;;;;;;;;;;;5.12;59.46;98629.06;4500749;31;19991;-84
2022/02/02 06:52:29;;;;;;;;;;;;;;;5.00;59.45;98638.88;4501674;31;20328;-84
2022/02/02 06:55:06;;;;;;;;;;;;;;;5.03;59.46;98641.38;4488053;31;19996;-84
2022/02/02 06:57:52;;;;;;;;;;;;;;;5.03;59.46;98646.53;4503560;31;19987;-85
2022/02/02 07:01:33;;;;;;;;;;;;;;;5.13;59.46;98641.06;4503059;31;20042;-85
2022/02/02 07:03:31;;;;;;;;;;;;;;;5.36;59.48;98637.84;4506507;31;19980;-85
2022/02/02 07:08:49;;;;;;;;;;;;;;;5.52;59.48;98633.94;4503976;31;20337;-85
2022/02/02 07:14:21;;;;;;;;;;;;;;;5.76;59.49;98621.19;4486674;31;19980;-85
2022/02/02 07:16:55;;;;;;;;;;;;;;;5.75;59.49;98619.50;4505232;31;20024;-85
2022/02/02 07:20:12;;;;;;;;;;;;;;;5.78;59.50;98620.25;4503983;31;20605;-85
2022/02/02 07:22:24;;;;;;;;;;;;;;;5.80;59.50;98622.78;4511027;31;20341;-85
2022/02/02 07:27:58;;;;;;;;;;;;;;;5.83;59.50;98627.84;4516071;31;20043;-84
2022/02/02 07:32:47;;;;;;;;;;;;;;;5.99;59.51;98626.50;4516833;31;20037;-85
2022/02/02 07:35:20;;;;;;;;;;;;;;;5.87;59.51;98629.44;4502963;31;19995;-85
2022/02/02 07:37:49;;;;;;;;;;;;;;;5.99;59.51;98636.84;4489898;31;20476;-85
2022/02/02 07:40:15;;;;;;;;;;;;;;;6.10;59.52;98642.50;4502659;31;19984;-85
2022/02/02 07:42:44;;;;;;;;;;;;;;;6.25;59.52;98651.50;4489300;31;20001;-85
2022/02/02 07:45:11;;;;;;;;;;;;;;;6.39;59.53;98649.34;4502912;31;20032;-86
2022/02/02 07:47:37;;;;;;;;;;;;;;;6.52;59.54;98659.25;4502331;31;20343;-85
2022/02/02 07:50:03;;;;;;;;;;;;;;;6.55;59.54;98659.16;4502493;31;19980;-85
2022/02/02 07:52:29;;;;;;;;;;;;;;;6.76;59.56;98658.44;4516058;31;19994;-83
2022/02/02 07:54:57;;;;;;;;;;;;;;;6.83;59.56;98661.66;4501877;31;19980;-84
2022/02/02 07:57:27;;;;;;;;;;;;;;;6.82;59.56;98660.81;4489203;31;19994;-85
2022/02/02 07:59:57;;;;;;;;;;;;;;;6.96;59.57;98656.03;4502474;31;19987;-85
2022/02/02 08:05:04;;;;;;;;;;;;;;;7.04;59.58;98658.31;4504112;31;20086;-85
2022/02/02 08:07:36;;;;;;;;;;;;;;;6.86;59.56;98667.59;4515182;31;19994;-83
2022/02/02 08:10:09;;;;;;;;;;;;;;;6.87;59.56;98671.03;4502609;31;20007;-84
2022/02/02 08:12:58;;;;;;;;;;;;;;;7.04;59.57;98672.09;4516408;31;19998;-85
2022/02/02 08:15:21;;;;;;;;;;;;;;;7.20;59.58;98677.59;4515633;31;20426;-84
2022/02/02 08:17:48;;;;;;;;;;;;;;;7.07;59.57;98679.75;4502588;31;20031;-83
2022/02/02 08:20:14;;;;;;;;;;;;;;;7.13;59.58;98676.13;4516689;31;20024;-85
2022/02/02 08:22:40;;;;;;;;;;;;;;;7.15;59.57;98682.09;4516766;31;19987;-85
2022/02/02 08:25:09;;;;;;;;;;;;;;;7.17;59.57;98689.81;4489081;31;19979;-85
2022/02/02 08:27:39;;;;;;;;;;;;;;;7.24;59.58;98688.69;4516691;31;20279;-84
2022/02/02 08:30:08;;;;;;;;;;;;;;;7.32;59.58;98684.06;4516780;31;20006;-84
2022/02/02 08:32:40;;;;;;;;;;;;;;;7.34;59.59;98683.16;4499393;31;20032;-85
2022/02/02 08:35:05;;;;;;;;;;;;;;;7.36;59.59;98675.31;4499671;31;19980;-86
2022/02/02 08:37:34;;;;;;;;;;;;;;;7.32;59.58;98665.94;4498872;31;19980;-84
2022/02/02 08:40:17;;;;;;;;;;;;;;;7.19;59.58;98665.56;4499512;31;20267;-84
2022/02/02 08:42:42;;;;;;;;;;;;;;;7.26;59.58;98672.19;4500590;31;19984;-85
2022/02/02 08:45:31;;;;;;;;;;;;;;;7.08;59.57;98652.97;4500881;31;20037;-84
2022/02/02 08:48:00;;;;;;;;;;;;;;;7.04;59.57;98648.81;4499526;31;20308;-85
2022/02/02 08:50:51;;;;;;;;;;;;;;;6.86;59.56;98641.72;4486277;31;20000;-85
2022/02/02 08:53:28;;;;;;;;;;;;;;;6.77;59.55;98634.25;4498792;31;19987;-84
2022/02/02 08:56:16;;;;;;;;;;;;;;;6.68;59.55;98640.59;4499383;31;20029;-85
2022/02/02 09:01:13;;;;;;;;;;;;;;;6.56;59.54;98638.41;4498791;31;20330;-83
2022/02/02 09:06:22;;;;;;;;;;;;;;;6.84;59.56;98651.25;4499058;31;20264;-83
2022/02/02 09:08:50;;;;;;;;;;;;;;;6.91;59.56;98645.00;4485811;31;20012;-84
2022/02/02 09:25:15;;;;;;;;;;;;;;;7.18;59.58;98643.16;4499043;31;20337;-86
2022/02/02 09:35:33;;;;;;;;;;;;;;;7.26;59.58;98658.41;4500418;31;20023;-86
2022/02/02 09:38:01;;;;;;;;;;;;;;;7.39;59.58;98655.34;4499768;31;20405;-85
2022/02/02 09:43:13;;;;;;;;;;;;;;;7.50;59.60;98659.25;4498883;31;20003;-85
2022/02/02 09:45:38;;;;;;;;;;;;;;;7.65;59.60;98667.31;4499004;31;20043;-86
2022/02/02 09:48:13;;;;;;;;;;;;;;;7.84;59.62;98664.03;4499940;31;19995;-86
2022/02/02 09:50:47;;;;;;;;;;;;;;;7.96;59.63;98663.56;4500159;31;20078;-86
2022/02/02 09:53:19;;;;;;;;;;;;;;;7.89;59.62;98667.28;4498640;31;19988;-85
2022/02/02 10:04:15;;;;;;;;;;;;;;;8.07;59.62;98663.16;4498635;31;20320;-85
2022/02/02 10:06:57;;;;;;;;;;;;;;;7.94;59.62;98653.25;4499911;31;20345;-85
2022/02/02 10:09:53;;;;;;;;;;;;;;;8.05;59.62;98658.03;4499951;31;20054;-84
2022/02/02 10:15:15;;;;;;;;;;;;;;;8.43;59.64;98653.06;4476242;31;19995;-84
2022/02/02 10:17:42;;;;;;;;;;;;;;;8.31;59.64;98651.81;4498367;31;20006;-85
2022/02/02 10:20:18;;;;;;;;;;;;;;;8.17;59.63;98646.31;4498415;31;19979;-84
2022/02/02 10:22:44;;;;;;;;;;;;;;;8.26;59.64;98651.97;4498034;31;19984;-84
2022/02/02 10:25:10;;;;;;;;;;;;;;;8.25;59.64;98628.69;4499408;31;19980;-85
2022/02/02 10:27:35;;;;;;;;;;;;;;;8.32;59.65;98641.38;4499205;31;19986;-84
2022/02/02 10:30:04;;;;;;;;;;;;;;;8.39;59.65;98649.78;4500213;31;19980;-84
2022/02/02 10:32:50;;;;;;;;;;;;;;;8.50;59.65;98637.19;4500069;31;19977;-84
2022/02/02 10:35:33;;;;;;;;;;;;;;;8.65;59.66;98645.25;4500048;31;20003;-85
2022/02/02 10:37:59;;;;;;;;;;;;;;;8.98;59.68;98643.81;4501653;31;19980;-84
2022/02/02 10:43:21;;;;;;;;;;;;;;;8.99;59.68;98645.53;4500165;31;19973;-84
2022/02/02 10:45:46;;;;;;;;;;;;;;;9.09;59.68;98659.78;4500252;31;20051;-83
2022/02/02 10:48:22;;;;;;;;;;;;;;;8.97;59.68;98647.31;4486949;31;19992;-83
2022/02/02 10:50:58;;;;;;;;;;;;;;;9.25;59.69;98651.34;4500626;31;19980;-84
2022/02/02 10:53:39;;;;;;;;;;;;;;;9.24;59.69;98660.88;4500186;31;19968;-85
2022/02/02 10:56:19;;;;;;;;;;;;;;;9.25;59.69;98659.13;4500365;31;20044;-84
2022/02/02 11:01:32;;;;;;;;;;;;;;;9.06;59.68;98661.69;4500361;31;20032;-84
2022/02/02 11:06:41;;;;;;;;;;;;;;;8.97;59.68;98668.09;4501415;31;20337;-86
2022/02/02 11:09:07;;;;;;;;;;;;;;;9.07;59.68;98668.56;4500296;31;19992;-85
2022/02/02 11:11:32;;;;;;;;;;;;;;;9.17;59.69;98665.47;4486922;31;20035;-85
2022/02/02 11:13:58;;;;;;;;;;;;;;;9.17;59.69;98677.63;4499153;31;28584;-84
2022/02/02 11:16:25;;;;;;;;;;;;;;;9.26;59.70;98664.25;4499956;31;19988;-85
2022/02/02 11:18:50;;;;;;;;;;;;;;;9.39;59.70;98665.38;4486671;31;20017;-83
2022/02/02 11:21:15;;;;;;;;;;;;;;;9.45;59.70;98664.25;4499241;31;27858;-85
2022/02/02 11:23:41;;;;;;;;;;;;;;;9.60;59.71;98670.53;4500104;31;20708;-86
2022/02/02 11:26:06;;;;;;;;;;;;;;;9.59;59.72;98671.44;4499283;31;19995;-84
2022/02/02 11:28:33;;;;;;;;;;;;;;;9.53;59.71;98660.44;4500760;31;29810;-85
2022/02/02 11:31:02;;;;;;;;;;;;;;;9.87;59.73;98661.47;4499977;31;20031;-83
2022/02/02 11:33:27;;;;;;;;;;;;;;;10.04;59.74;98652.87;4499839;31;20344;-84
2022/02/02 11:35:56;;;;;;;;;;;;;;;10.12;59.74;98653.34;4499769;31;20011;-84
2022/02/02 11:38:26;;;;;;;;;;;;;;;9.88;59.73;98651.91;4499911;31;19995;-83
2022/02/02 11:46:47;;;;;;;;;;;;;;;10.17;59.75;98643.56;4501151;31;19988;-83
2022/02/02 11:49:16;;;;;;;;;;;;;;;10.15;59.74;98641.03;4501200;31;20468;-84
2022/02/02 11:51:54;;;;;;;;;;;;;;;10.06;59.74;98641.50;4499813;31;19980;-84
2022/02/02 11:54:40;;;;;;;;;;;;;;;10.11;59.74;98636.91;4486138;31;20496;-84
2022/02/02 11:57:15;;;;;;;;;;;;;;;10.19;59.75;98630.53;4488515;31;20291;-84
2022/02/02 12:05:30;;;;;;;;;;;;;;;9.71;59.72;98643.16;4499497;31;20827;-83
2022/02/02 12:08:54;;;;;;;;;;;;;;;9.76;59.72;98654.19;4487836;31;19996;-84
2022/02/02 12:11:01;;;;;;;;;;;;;;;9.82;59.72;98653.88;4491117;31;19984;-83
2022/02/02 12:56:59;;;;;;;;;;;;;;;9.52;59.71;98715.03;4503931;31;19983;-83
2022/02/02 13:02:10;;;;;;;;;;;;;;;9.80;59.73;98722.44;4502803;31;20308;-83
2022/02/02 13:04:36;;;;;;;;;;;;;;;9.61;59.72;98745.81;4501651;31;19992;-83
2022/02/02 13:07:12;;;;;;;;;;;;;;;9.37;59.70;98732.12;4488338;31;20117;-82
2022/02/02 13:09:37;;;;;;;;;;;;;;;9.25;59.69;98729.25;4501968;31;19980;-84
2022/02/02 13:12:22;;;;;;;;;;;;;;;9.30;59.69;98735.91;4516245;31;20002;-83
2022/02/02 13:17:28;;;;;;;;;;;;;;;8.78;59.67;98721.69;4516232;31;19979;-84
2022/02/02 13:19:57;;;;;;;;;;;;;;;8.52;59.66;98756.47;4516267;31;20008;-83
2022/02/02 13:22:22;;;;;;;;;;;;;;;8.54;59.65;98744.28;4501638;31;20581;-83
2022/02/02 13:24:48;;;;;;;;;;;;;;;8.61;59.66;98750.91;4515882;31;19996;-83
2022/02/02 13:27:18;;;;;;;;;;;;;;;8.75;59.67;98747.72;4516000;31;19975;-83
2022/02/02 13:29:50;;;;;;;;;;;;;;;8.96;59.69;98759.84;4501344;31;20422;-83
2022/02/02 13:32:22;;;;;;;;;;;;;;;8.87;59.67;98755.88;4515742;31;19983;-83
2022/02/02 13:35:09;;;;;;;;;;;;;;;9.02;59.68;98763.94;4515670;31;19987;-83
2022/02/02 13:45:25;;;;;;;;;;;;;;;8.83;59.68;98774.22;4501876;31;19987;-84
2022/02/02 14:01:22;;;;;;;;;;;;;;;9.07;59.68;98790.56;4515621;31;19984;-84
2022/02/02 14:04:00;;;;;;;;;;;;;;;9.07;59.69;98769.78;4516383;31;19976;-84
2022/02/02 14:33:12;;;;;;;;;;;;;;;9.34;59.71;98823.16;4500259;31;20024;-84
2022/02/02 14:35:38;;;;;;;;;;;;;;;9.15;59.69;98830.03;4499842;31;19992;-83
2022/02/02 14:38:04;;;;;;;;;;;;;;;9.16;59.69;98831.72;4501652;31;19988;-83
2022/02/02 14:43:09;;;;;;;;;;;;;;;8.93;59.68;98843.84;4500329;31;19996;-83
2022/02/02 14:45:39;;;;;;;;;;;;;;;9.09;59.69;98843.25;4486931;31;20629;-83
2022/02/02 14:48:23;;;;;;;;;;;;;;;8.90;59.68;98848.34;4501505;31;20362;-83
2022/02/02 14:51:04;;;;;;;;;;;;;;;8.76;59.67;98859.28;4500456;31;20030;-83
2022/02/02 15:07:19;;;;;;;;;;;;;;;8.71;59.66;98875.91;4500041;31;20046;-83
2022/02/02 15:30:32;;;;;;;;;;;;;;;8.06;59.62;98894.72;4501201;31;20030;-83
2022/02/02 15:33:03;;;;;;;;;;;;;;;7.91;59.61;98878.78;4507711;31;19993;-83
2022/02/02 15:35:29;;;;;;;;;;;;;;;7.93;59.63;98899.47;4502868;31;19979;-82
2022/02/02 15:37:59;;;;;;;;;;;;;;;7.83;59.62;98898.09;4502499;31;20032;-83
2022/02/02 15:40:32;;;;;;;;;;;;;;;7.72;59.61;98901.06;4502867;31;20002;-83
2022/02/02 15:54:44;;;;;;;;;;;;;;;7.73;59.61;98922.62;4502957;31;19992;-83
2022/02/02 15:59:09;;;;;;;;;;;;;;;7.52;59.60;98953.50;4516769;31;19984;-84
2022/02/02 16:04:07;;;;;;;;;;;;;;;7.33;59.59;98960.16;4516578;31;19984;-83
2022/02/02 16:06:33;;;;;;;;;;;;;;;7.55;59.61;98971.53;4488213;31;20020;-83
2022/02/02 16:09:40;;;;;;;;;;;;;;;7.41;59.59;98978.06;4514957;31;27694;-82
2022/02/02 16:12:13;;;;;;;;;;;;;;;7.18;59.58;98984.78;4514136;31;19984;-83
2022/02/02 16:14:45;;;;;;;;;;;;;;;7.29;59.58;98994.81;4516132;31;19976;-83
2022/02/02 16:17:19;;;;;;;;;;;;;;;7.31;59.58;99008.53;4516600;31;19969;-84
2022/02/02 16:31:34;;;;;;;;;;;;;;;6.50;59.53;99017.81;4504077;31;19994;-82
2022/02/02 16:36:27;;;;;;;;;;;;;;;6.60;59.55;99029.59;4502103;31;20046;-82
2022/02/02 16:38:56;;;;;;;;;;;;;;;6.48;59.54;99030.78;4503188;31;20479;-83
2022/02/02 16:44:05;;;;;;;;;;;;;;;6.48;59.54;99041.13;4504186;31;19994;-83
2022/02/02 16:46:30;;;;;;;;;;;;;;;6.53;59.55;99053.94;4501355;31;20047;-83
2022/02/02 16:48:55;;;;;;;;;;;;;;;6.34;59.53;99054.41;4515657;31;22442;-83
2022/02/02 16:51:21;;;;;;;;;;;;;;;6.24;59.52;99057.28;4515687;31;26810;-82
2022/02/02 16:53:49;;;;;;;;;;;;;;;6.45;59.54;99061.91;4501472;31;20371;-82
2022/02/02 16:56:33;;;;;;;;;;;;;;;6.25;59.53;99083.09;4501544;31;20446;-83
2022/02/02 17:31:59;;;;;;;;;;;;;;;6.55;59.54;99140.06;4503340;31;19983;-84
2022/02/02 17:34:33;;;;;;;;;;;;;;;6.49;59.54;99150.56;4484196;31;20015;-83
2022/02/02 17:37:11;;;;;;;;;;;;;;;6.45;59.54;99158.41;4484162;31;20616;-83
2022/02/02 17:39:50;;;;;;;;;;;;;;;6.54;59.55;99159.03;4482220;32;20044;-83
2022/02/02 18:03:54;;;;;;;;;;;;;;;6.47;59.54;99169.56;4483989;32;19999;-84
2022/02/02 18:19:50;;;;;;;;;;;;;;;6.50;59.54;99196.22;4483787;32;19976;-84
2022/02/02 18:22:16;;;;;;;;;;;;;;;6.44;59.54;99199.81;4482265;32;19995;-84
2022/02/02 18:25:10;;;;;;;;;;;;;;;6.42;59.54;99192.09;4482376;32;19968;-84
2022/02/02 18:27:38;;;;;;;;;;;;;;;6.59;59.55;99207.16;4483337;32;19993;-84
2022/02/02 18:35:21;;;;;;;;;;;;;;;6.52;59.55;99231.47;4515157;31;20321;-84
2022/02/02 18:43:25;;;;;;;;;;;;;;;6.60;59.55;99226.97;4502840;31;19998;-84
2022/02/02 18:48:33;;;;;;;;;;;;;;;6.51;59.55;99242.72;4501511;31;19987;-83
2022/02/02 18:51:19;;;;;;;;;;;;;;;6.57;59.54;99241.72;4502481;31;20015;-84
2022/02/02 19:04:09;;;;;;;;;;;;;;;6.21;59.53;99264.09;4517135;31;20023;-84
2022/02/02 19:31:31;;;;;;;;;;;;;;;6.08;59.52;99305.69;4516720;31;20901;-83
2022/02/02 19:37:23;;;;;;;;;;;;;;;6.15;59.53;99309.88;4503822;31;20039;-85
2022/02/02 20:01:56;;;;;;;;;;;;;;;5.70;59.50;99328.84;4503742;31;19990;-84
2022/02/02 20:09:37;;;;;;;;;;;;;;;5.84;59.51;99326.81;4502045;31;20030;-82
2022/02/02 20:12:03;;;;;;;;;;;;;;;5.70;59.50;99324.53;4503358;31;20058;-83
2022/02/02 20:14:29;;;;;;;;;;;;;;;5.62;59.50;99323.78;4501874;31;20010;-83
2022/02/02 20:16:54;;;;;;;;;;;;;;;5.47;59.48;99331.84;4516531;31;19996;-84
2022/02/02 20:19:19;;;;;;;;;;;;;;;5.61;59.49;99329.84;4501681;31;19987;-84
2022/02/02 20:21:47;;;;;;;;;;;;;;;5.73;59.50;99337.37;4516467;31;19975;-84
2022/02/02 20:24:12;;;;;;;;;;;;;;;5.70;59.50;99342.59;4516478;31;19999;-83
2022/02/02 20:26:37;;;;;;;;;;;;;;;5.53;59.49;99336.88;4501384;31;21046;-84
2022/02/02 20:29:03;;;;;;;;;;;;;;;5.52;59.48;99343.78;4501649;31;20008;-84
2022/02/02 20:31:29;;;;;;;;;;;;;;;5.52;59.49;99346.37;4501962;31;20761;-84
2022/02/02 20:33:55;;;;;;;;;;;;;;;5.50;59.49;99337.81;4485736;31;20252;-84
2022/02/02 20:36:20;;;;;;;;;;;;;;;5.48;59.49;99341.28;4500605;31;19998;-84
2022/02/02 20:38:45;;;;;;;;;;;;;;;5.54;59.49;99352.34;4499850;31;26641;-84
2022/02/02 20:41:10;;;;;;;;;;;;;;;5.45;59.48;99338.78;4498660;31;23495;-82
2022/02/02 20:43:51;;;;;;;;;;;;;;;5.49;59.48;99337.84;4499130;31;20000;-85
2022/02/02 21:05:34;;;;;;;;;;;;;;;5.32;59.48;99397.47;4499076;31;20003;-84
2022/02/02 21:10:28;;;;;;;;;;;;;;;5.31;59.48;99411.25;4498806;31;20341;-84
2022/02/02 21:15:39;;;;;;;;;;;;;;;5.26;59.48;99415.66;4499063;31;20002;-87
2022/02/02 21:18:14;;;;;;;;;;;;;;;5.23;59.47;99419.13;4498721;31;19996;-85
2022/02/02 21:23:31;;;;;;;;;;;;;;;5.42;59.48;99426.56;4498166;31;19980;-85
2022/02/02 21:26:22;;;;;;;;;;;;;;;5.37;59.48;99430.94;4498727;31;20444;-84
2022/02/02 21:28:47;;;;;;;;;;;;;;;5.24;59.46;99435.47;4498743;31;20000;-86
2022/02/02 21:31:13;;;;;;;;;;;;;;;5.32;59.48;99449.09;4443251;31;1301713;-87
2022/02/02 21:33:39;;;;;;;;;;;;;;;5.33;59.48;99447.34;4510958;31;19968;-85
2022/02/02 21:36:08;;;;;;;;;;;;;;;5.31;59.47;99459.44;4515943;31;19983;-85
2022/02/02 21:39:10;;;;;;;;;;;;;;;5.37;59.47;99460.19;4501808;31;19987;-84
2022/02/02 21:41:37;;;;;;;;;;;;;;;5.43;59.48;99470.41;4512380;31;19980;-83
2022/02/02 21:44:02;;;;;;;;;;;;;;;5.46;59.49;99465.22;4489041;31;19984;-83
2022/02/02 21:46:28;;;;;;;;;;;;;;;5.36;59.48;99473.13;4515413;31;20017;-84
2022/02/02 21:48:54;;;;;;;;;;;;;;;5.51;59.49;99458.25;4501022;31;20034;-86
2022/02/02 21:51:26;;;;;;;;;;;;;;;5.35;59.48;99474.84;4487822;31;19976;-85
2022/02/02 21:53:52;;;;;;;;;;;;;;;5.29;59.47;99484.41;4500949;31;20059;-85
2022/02/02 21:56:17;;;;;;;;;;;;;;;5.26;59.48;99479.31;4501010;31;20091;-84
2022/02/02 21:58:42;;;;;;;;;;;;;;;5.45;59.48;99485.91;4487760;31;20047;-83
2022/02/02 22:01:08;;;;;;;;;;;;;;;5.43;59.48;99477.28;4514512;31;28152;-84
2022/02/02 22:03:33;;;;;;;;;;;;;;;5.32;59.49;99476.63;4487681;31;19987;-85
2022/02/02 22:05:58;;;;;;;;;;;;;;;5.19;59.47;99486.25;4501000;31;20663;-85
2022/02/02 22:08:23;;;;;;;;;;;;;;;5.18;59.47;99488.00;4487225;31;21423;-86
2022/02/02 22:10:49;;;;;;;;;;;;;;;5.06;59.46;99492.50;4501026;31;20007;-87
2022/02/02 22:13:15;;;;;;;;;;;;;;;5.14;59.47;99504.38;4487868;31;19986;-86
2022/02/02 22:15:52;;;;;;;;;;;;;;;5.29;59.47;99492.16;4501144;31;20002;-86
2022/02/02 22:18:18;;;;;;;;;;;;;;;5.23;59.47;99482.78;4488969;31;19983;-85
2022/02/02 22:20:44;;;;;;;;;;;;;;;5.06;59.46;99521.72;4500544;31;19996;-84
2022/02/02 22:23:09;;;;;;;;;;;;;;;5.12;59.47;99500.13;4515065;31;20324;-86
2022/02/02 22:25:35;;;;;;;;;;;;;;;5.19;59.47;99512.91;4501389;31;19991;-84
2022/02/02 22:28:00;;;;;;;;;;;;;;;5.16;59.47;99528.44;4517036;31;21331;-85
2022/02/02 22:30:25;;;;;;;;;;;;;;;5.11;59.46;99513.91;4502619;31;20318;-84
2022/02/02 22:32:51;;;;;;;;;;;;;;;5.16;59.47;99538.75;4517116;31;19968;-85
2022/02/02 22:35:16;;;;;;;;;;;;;;;5.15;59.46;99536.19;4489424;31;19980;-85
2022/02/02 22:37:41;;;;;;;;;;;;;;;5.25;59.47;99548.12;4502591;31;20371;-85
2022/02/02 22:40:07;;;;;;;;;;;;;;;5.08;59.46;99540.59;4516898;31;19987;-85
2022/02/02 22:42:34;;;;;;;;;;;;;;;5.15;59.46;99543.94;4517414;31;20003;-87
2022/02/02 22:45:02;;;;;;;;;;;;;;;5.13;59.47;99543.97;4489742;31;20482;-87
2022/02/02 22:47:29;;;;;;;;;;;;;;;5.14;59.47;99566.31;4489449;31;20691;-86
2022/02/02 22:49:54;;;;;;;;;;;;;;;5.11;59.47;99558.63;4502450;31;20356;-84
2022/02/02 22:52:20;;;;;;;;;;;;;;;5.10;59.47;99568.97;4489645;31;19995;-86
2022/02/02 22:54:45;;;;;;;;;;;;;;;5.11;59.47;99578.41;4502399;31;20011;-85
2022/02/02 22:57:11;;;;;;;;;;;;;;;4.99;59.46;99574.25;4489548;31;20047;-86
2022/02/02 22:59:39;;;;;;;;;;;;;;;4.93;59.46;99580.31;4502421;31;19979;-84
2022/02/02 23:02:17;;;;;;;;;;;;;;;4.98;59.45;99582.03;4516969;31;20484;-86
2022/02/02 23:04:44;;;;;;;;;;;;;;;5.06;59.46;99590.50;4517348;31;19984;-87
2022/02/02 23:07:09;;;;;;;;;;;;;;;4.93;59.46;99608.69;4489693;31;19995;-86
2022/02/02 23:09:36;;;;;;;;;;;;;;;5.00;59.45;99608.66;4502394;31;20375;-84
2022/02/02 23:12:01;;;;;;;;;;;;;;;5.10;59.46;99607.66;4502751;31;20036;-85
2022/02/02 23:14:32;;;;;;;;;;;;;;;5.07;59.46;99624.03;4489071;31;20018;-85
2022/02/02 23:16:58;;;;;;;;;;;;;;;4.87;59.46;99629.41;4517176;31;20084;-85
2022/02/02 23:19:23;;;;;;;;;;;;;;;5.07;59.46;99633.50;4517234;31;19991;-85
2022/02/02 23:21:48;;;;;;;;;;;;;;;4.95;59.46;99626.72;4489306;31;19971;-84
2022/02/02 23:24:14;;;;;;;;;;;;;;;5.06;59.46;99629.22;4517099;31;20300;-84
2022/02/02 23:26:39;;;;;;;;;;;;;;;5.05;59.46;99630.09;4502606;31;19995;-85
2022/02/02 23:29:05;;;;;;;;;;;;;;;4.82;59.45;99638.06;4517196;31;19992;-85
2022/02/02 23:31:30;;;;;;;;;;;;;;;5.01;59.46;99647.31;4489308;31;20039;-85